hero-logo

Top 15 Knowers of WLK Westlake Chemical Corp - 2017-07-25

Rank Fund Result (K)
1 Tide Point Capital Management Lp $8,392
2 Moore Capital Management Lp $2,800
3 Anchor Bolt Capital Lp $2,733
4 Avalon Advisors Llc $1,154
5 Castle Hook Partners Lp $1,089
6 Guggenheim Capital Llc $741
7 Wafra Investment Advisory Group Inc Ny $512
8 Tvr Capital Management Lp $390
9 Denver Investment Advisors Llc $228
10 Hampstead Capital Llp $150
11 Piedmont Investment Advisors Llc $140
12 Hcr Wealth Advisors $133
13 Seven Eight Capital Lp $58
14 Caxton Associates Lp $50
15 Jaffetilchin Investment Partners Llc $40
Price Chart and News From Google Finance for WLK Westlake Chemical Corp
Owner Date Shares Change Price Change Result (K)
Ahl Partners Llp 2017-03-31 -4,340 $10.06 $-43
Amalgamated Bank 2017-03-31 177 $10.06 $1
Anchor Bolt Capital Lp 2017-03-31 271,691 $10.06 $2,733
Aperio Group Llc 2017-03-31 -617 $10.06 $-6
Argi Investment Services Llc 2017-03-31 335 $10.06 $3
Avalon Advisors Llc 2017-03-31 114,772 $10.06 $1,154
Bokf Na 2017-03-31 3,010 $10.06 $30
Bowling Portfolio Management Llc 2017-03-31 -251 $10.06 $-2
Bp Capital Fund Advisors Llc 2017-03-31 -54,599 $10.06 $-549
Broadview Advisors Llc 2017-03-31 1,850 $10.06 $18
California State Teachers Retirement System 2017-03-31 -3,500 $10.06 $-35
Carlson Capital L P 2017-03-31 -201,693 $10.06 $-2,029
Castle Hook Partners Lp 2017-03-31 108,337 $10.06 $1,089
Caxton Associates Lp 2017-03-31 5,000 $10.06 $50
Chartwell Investment Partners Llc 2017-03-31 0 $10.06 $0
Cornerstone Capital Management Holdings Llc 2017-03-31 -76,753 $10.06 $-772
Cushing Asset Management Lp 2017-03-31 -118,333 $10.06 $-1,190
Denver Investment Advisors Llc 2017-03-31 22,666 $10.06 $228
Earnest Partners Llc 2017-03-31 -45 $10.06 $0
Elco Management Co Llc 2017-03-31 0 $10.06 $0
Envestnet Asset Management Inc 2017-03-31 -317 $10.06 $-3
Fdx Advisors Inc 2017-03-31 -11,795 $10.06 $-118
Fiera Capital Corp 2017-03-31 -40,100 $10.06 $-403
Glen Harbor Capital Management Llc 2017-03-31 -26,976 $10.06 $-271
Gsa Capital Partners Llp 2017-03-31 -5,779 $10.06 $-58
Guggenheim Capital Llc 2017-03-31 73,671 $10.06 $741
Hampstead Capital Llp 2017-03-31 15,000 $10.06 $150
Hcr Wealth Advisors 2017-03-31 13,235 $10.06 $133
Highbridge Capital Management Llc 2017-03-31 -132,800 $10.06 $-1,335
Horizon Kinetics Llc 2017-03-31 -1,136 $10.06 $-11
Ifp Advisors Inc 2017-03-31 -517 $10.06 $-5
Itau Unibanco Holding S A 2017-03-31 602 $10.06 $6
Jaffetilchin Investment Partners Llc 2017-03-31 4,054 $10.06 $40
Johnson Investment Counsel Inc 2017-03-31 0 $10.06 $0
Kennedy Capital Management Inc 2017-03-31 -4,671 $10.06 $-46
Ladenburg Thalmann Financial Services Inc 2017-03-31 104 $10.06 $1
Loomis Sayles Co L P 2017-03-31 0 $10.06 $0
Moore Capital Management Lp 2017-03-31 278,341 $10.06 $2,800
Neuburgh Advisers Llc 2017-03-31 -57,324 $10.06 $-576
Northwestern Mutual Wealth Management Co 2017-03-31 -71 $10.06 $0
Piedmont Investment Advisors Llc 2017-03-31 13,961 $10.06 $140
Price Michael F 2017-03-31 -25,000 $10.06 $-251
Proficio Capital Partners Llc 2017-03-31 164 $10.06 $1
Public Employees Retirement System Of Ohio 2017-03-31 -73 $10.06 $0
Riverhead Capital Management Llc 2017-03-31 -29,706 $10.06 $-298
Sciencast Management Lp 2017-03-31 4,016 $10.06 $40
Seven Eight Capital Lp 2017-03-31 5,800 $10.06 $58
Shapiro Capital Management Llc 2017-03-31 -560,372 $10.06 $-5,637
Squarepoint Ops Llc 2017-03-31 -3,713 $10.06 $-37
Sterling Capital Management Llc 2017-03-31 0 $10.06 $0
Summit Street Capital Management Llc 2017-03-31 -57,126 $10.06 $-574
Tide Point Capital Management Lp 2017-03-31 834,288 $10.06 $8,392
Tvr Capital Management Lp 2017-03-31 38,798 $10.06 $390
Tyers Asset Management Llc 2017-03-31 -37,092 $10.06 $-373
Verition Fund Management Llc 2017-03-31 -14,310 $10.06 $-143
Voloridge Investment Management Llc 2017-03-31 -19,572 $10.06 $-196
Wafra Investment Advisory Group Inc Ny 2017-03-31 50,946 $10.06 $512
Walleye Trading Llc 2017-03-31 -11,147 $10.06 $-112
Webster Bank N A 2017-03-31 -500 $10.06 $-5